PWSweather.com
Personal Weather Stations
Station Observations

BunburyAU

Lat: -33.378333, Lon: 115.651667

Elevation: 95

Station Type: Fine Offset WH2081

http://www.sedgleymanor.com/wx/index.htm

Latest ConditionsUpdated 2:45:02 PM GMT+08:08 Saturday, Jan 31, 2015
Currently Today's Max Today's Min Today's Average
Temperature 91.2°F32.9°C 93.9°F34.4°C 64.9°F18.3°C 76.9°F24.9°C
Dew Point 53.6°F12.0°C 56.7°F13.7°C 51.4°F10.8°C 55.0°F12.8°C
Winds 6.5 mph E10.5 kmh E 8.9 mph E14.3 kmh E - 6.2 mph 10.0 kmh
Wind Gusts 18.3 mph29.5 kmh 21.3 mph34.3 kmh - -
Humidity 28% 72% 26% 50%
Pressure 29.92 in1013.2 mb 29.99 in1015.6 mb 29.92 in1013.2 mb -
Hour Temp Dew Point Humidity Winds Wind Gusts Pressure Precip Precip Rate Daily Precip Total
02:45 PM 91.2°F32.9°C 53.6°F12.0°C 28% 6.5 mph E10.5 kmh E 18.3 mph29.5 kmh 29.92 in1013.2 mb 0.00 in0.0 mm 0.00 in/hr0.0 mm/hr 0.00 in0.0 mm
02:40 PM 91.6°F33.1°C 56.7°F13.7°C 31% 6.9 mph E11.1 kmh E 10.7 mph17.2 kmh 29.92 in1013.2 mb 0.00 in0.0 mm 0.00 in/hr0.0 mm/hr 0.00 in0.0 mm
02:30 PM 91.0°F32.8°C 53.5°F11.9°C 28% 7.1 mph ENE11.4 kmh ENE 18.3 mph29.5 kmh 29.92 in1013.2 mb 0.00 in0.0 mm 0.00 in/hr0.0 mm/hr 0.00 in0.0 mm
02:15 PM 93.9°F34.4°C 55.9°F13.3°C 28% 7.1 mph ENE11.4 kmh ENE 18.3 mph29.5 kmh 29.92 in1013.2 mb 0.00 in0.0 mm 0.00 in/hr0.0 mm/hr 0.00 in0.0 mm
02:00 PM 91.8°F33.2°C 56.0°F13.3°C 30% 8.1 mph ENE13.0 kmh ENE 15.2 mph24.5 kmh 29.92 in1013.2 mb 0.00 in0.0 mm 0.00 in/hr0.0 mm/hr 0.00 in0.0 mm
01:45 PM 93.9°F34.4°C 53.9°F12.2°C 26% 6.4 mph E10.3 kmh E 15.2 mph24.5 kmh 29.92 in1013.2 mb 0.00 in0.0 mm 0.00 in/hr0.0 mm/hr 0.00 in0.0 mm
01:30 PM 91.6°F33.1°C 53.9°F12.2°C 28% 7.3 mph E11.7 kmh E 16.8 mph27.0 kmh 29.93 in1013.5 mb 0.00 in0.0 mm 0.00 in/hr0.0 mm/hr 0.00 in0.0 mm
01:15 PM 91.6°F33.1°C 54.9°F12.7°C 29% 8.4 mph ENE13.5 kmh ENE 18.3 mph29.5 kmh 29.93 in1013.5 mb 0.00 in0.0 mm 0.00 in/hr0.0 mm/hr 0.00 in0.0 mm
01:00 PM 89.8°F32.1°C 51.4°F10.8°C 27% 8.1 mph E13.0 kmh E 15.2 mph24.5 kmh 29.93 in1013.5 mb 0.00 in0.0 mm 0.00 in/hr0.0 mm/hr 0.00 in0.0 mm
12:45 PM 90.7°F32.6°C 53.2°F11.8°C 28% 7.4 mph E11.9 kmh E 15.9 mph25.6 kmh 29.93 in1013.5 mb 0.00 in0.0 mm 0.00 in/hr0.0 mm/hr 0.00 in0.0 mm
12:30 PM 89.1°F31.7°C 52.7°F11.5°C 29% 8.6 mph E13.8 kmh E 21.3 mph34.3 kmh 29.94 in1013.9 mb 0.00 in0.0 mm 0.00 in/hr0.0 mm/hr 0.00 in0.0 mm
12:15 PM 89.2°F31.8°C 52.9°F11.6°C 29% 8.7 mph E14.0 kmh E 19.0 mph30.6 kmh 29.94 in1013.9 mb 0.00 in0.0 mm 0.00 in/hr0.0 mm/hr 0.00 in0.0 mm
12:00 PM 88.3°F31.3°C 52.1°F11.2°C 29% 8.1 mph E13.0 kmh E 17.4 mph28.0 kmh 29.94 in1013.9 mb 0.00 in0.0 mm 0.00 in/hr0.0 mm/hr 0.00 in0.0 mm
11:45 AM 87.8°F31.0°C 52.6°F11.4°C 30% 7.2 mph E11.6 kmh E 15.2 mph24.5 kmh 29.95 in1014.2 mb 0.00 in0.0 mm 0.00 in/hr0.0 mm/hr 0.00 in0.0 mm
11:30 AM 88.0°F31.1°C 52.7°F11.5°C 30% 7.9 mph E12.7 kmh E 15.9 mph25.6 kmh 29.95 in1014.2 mb 0.00 in0.0 mm 0.00 in/hr0.0 mm/hr 0.00 in0.0 mm
11:15 AM 86.2°F30.1°C 52.9°F11.6°C 32% 8.7 mph E14.0 kmh E 17.4 mph28.0 kmh 29.96 in1014.6 mb 0.00 in0.0 mm 0.00 in/hr0.0 mm/hr 0.00 in0.0 mm
11:00 AM 86.7°F30.4°C 53.4°F11.9°C 32% 7.1 mph E11.4 kmh E 15.9 mph25.6 kmh 29.96 in1014.6 mb 0.00 in0.0 mm 0.00 in/hr0.0 mm/hr 0.00 in0.0 mm
10:45 AM 84.9°F29.4°C 53.5°F11.9°C 34% 7.8 mph E12.6 kmh E 15.9 mph25.6 kmh 29.97 in1014.9 mb 0.00 in0.0 mm 0.00 in/hr0.0 mm/hr 0.00 in0.0 mm
10:30 AM 84.7°F29.3°C 53.3°F11.8°C 34% 6.7 mph E10.8 kmh E 16.8 mph27.0 kmh 29.98 in1015.2 mb 0.00 in0.0 mm 0.00 in/hr0.0 mm/hr 0.00 in0.0 mm
10:15 AM 83.7°F28.7°C 54.7°F12.6°C 37% 6.7 mph E10.8 kmh E 17.4 mph28.0 kmh 29.98 in1015.2 mb 0.00 in0.0 mm 0.00 in/hr0.0 mm/hr 0.00 in0.0 mm
10:00 AM 84.0°F28.9°C 55.0°F12.8°C 37% 6.7 mph ESE10.8 kmh ESE 15.9 mph25.6 kmh 29.98 in1015.2 mb 0.00 in0.0 mm 0.00 in/hr0.0 mm/hr 0.00 in0.0 mm
09:45 AM 81.1°F27.3°C 53.9°F12.2°C 39% 7.6 mph E12.2 kmh E 15.2 mph24.5 kmh 29.98 in1015.2 mb 0.00 in0.0 mm 0.00 in/hr0.0 mm/hr 0.00 in0.0 mm
09:30 AM 80.8°F27.1°C 52.8°F11.6°C 38% 7.5 mph E12.1 kmh E 16.8 mph27.0 kmh 29.97 in1014.9 mb 0.00 in0.0 mm 0.00 in/hr0.0 mm/hr 0.00 in0.0 mm
09:15 AM 80.2°F26.8°C 54.4°F12.4°C 41% 7.4 mph ESE11.9 kmh ESE 15.9 mph25.6 kmh 29.97 in1014.9 mb 0.00 in0.0 mm 0.00 in/hr0.0 mm/hr 0.00 in0.0 mm
09:00 AM 78.1°F25.6°C 53.8°F12.1°C 43% 8.9 mph E14.3 kmh E 21.3 mph34.3 kmh 29.97 in1014.9 mb 0.00 in0.0 mm 0.00 in/hr0.0 mm/hr 0.00 in0.0 mm
08:45 AM 78.4°F25.8°C 54.1°F12.3°C 43% 6.9 mph E11.1 kmh E 15.2 mph24.5 kmh 29.98 in1015.2 mb 0.00 in0.0 mm 0.00 in/hr0.0 mm/hr 0.00 in0.0 mm
08:30 AM 77.9°F25.5°C 54.9°F12.7°C 45% 5.2 mph E8.4 kmh E 13.6 mph21.9 kmh 29.97 in1014.9 mb 0.00 in0.0 mm 0.00 in/hr0.0 mm/hr 0.00 in0.0 mm
08:15 AM 77.2°F25.1°C 55.4°F13.0°C 47% 5.9 mph ESE9.5 kmh ESE 13.0 mph20.9 kmh 29.98 in1015.2 mb 0.00 in0.0 mm 0.00 in/hr0.0 mm/hr 0.00 in0.0 mm
08:00 AM 75.7°F24.3°C 55.8°F13.2°C 50% 6.1 mph ENE9.8 kmh ENE 15.9 mph25.6 kmh 29.98 in1015.2 mb 0.00 in0.0 mm 0.00 in/hr0.0 mm/hr 0.00 in0.0 mm
07:45 AM 74.8°F23.8°C 55.5°F13.1°C 51% 5.5 mph E8.9 kmh E 14.5 mph23.3 kmh 29.98 in1015.2 mb 0.00 in0.0 mm 0.00 in/hr0.0 mm/hr 0.00 in0.0 mm
07:30 AM 74.7°F23.7°C 55.4°F13.0°C 51% 5.3 mph E8.5 kmh E 12.1 mph19.5 kmh 29.99 in1015.6 mb 0.00 in0.0 mm 0.00 in/hr0.0 mm/hr 0.00 in0.0 mm
07:15 AM 74.1°F23.4°C 56.4°F13.6°C 54% 4.2 mph E6.8 kmh E 8.3 mph13.4 kmh 29.98 in1015.2 mb 0.00 in0.0 mm 0.00 in/hr0.0 mm/hr 0.00 in0.0 mm
07:00 AM 72.1°F22.3°C 56.1°F13.4°C 57% 4.8 mph E7.7 kmh E 13.0 mph20.9 kmh 29.98 in1015.2 mb 0.00 in0.0 mm 0.00 in/hr0.0 mm/hr 0.00 in0.0 mm
06:45 AM 70.7°F21.5°C 56.2°F13.4°C 60% 5.2 mph E8.4 kmh E 11.4 mph18.3 kmh 29.99 in1015.6 mb 0.00 in0.0 mm 0.00 in/hr0.0 mm/hr 0.00 in0.0 mm
06:30 AM 70.2°F21.2°C 56.1°F13.4°C 61% 3.5 mph E5.6 kmh E 8.3 mph13.4 kmh 29.98 in1015.2 mb 0.00 in0.0 mm 0.00 in/hr0.0 mm/hr 0.00 in0.0 mm
06:15 AM 69.1°F20.6°C 56.4°F13.6°C 64% 2.7 mph E4.3 kmh E 6.9 mph11.1 kmh 29.98 in1015.2 mb 0.00 in0.0 mm 0.00 in/hr0.0 mm/hr 0.00 in0.0 mm
06:00 AM 66.6°F19.2°C 56.5°F13.6°C 70% 1.9 mph ESE3.1 kmh ESE 6.0 mph9.7 kmh 29.98 in1015.2 mb 0.00 in0.0 mm 0.00 in/hr0.0 mm/hr 0.00 in0.0 mm
05:45 AM 64.9°F18.3°C 55.7°F13.2°C 72% 2.2 mph ESE3.5 kmh ESE 5.4 mph8.7 kmh 29.97 in1014.9 mb 0.00 in0.0 mm 0.00 in/hr0.0 mm/hr 0.00 in0.0 mm
05:30 AM 65.5°F18.6°C 55.8°F13.2°C 71% 2.7 mph E4.3 kmh E 8.3 mph13.4 kmh 29.96 in1014.6 mb 0.00 in0.0 mm 0.00 in/hr0.0 mm/hr 0.00 in0.0 mm
05:15 AM 65.7°F18.7°C 56.0°F13.3°C 71% 3.3 mph E5.3 kmh E 9.2 mph14.8 kmh 29.97 in1014.9 mb 0.00 in0.0 mm 0.00 in/hr0.0 mm/hr 0.00 in0.0 mm
05:00 AM 65.8°F18.8°C 56.2°F13.4°C 71% 4.7 mph E7.6 kmh E 9.8 mph15.8 kmh 29.96 in1014.6 mb 0.00 in0.0 mm 0.00 in/hr0.0 mm/hr 0.00 in0.0 mm
04:45 AM 65.8°F18.8°C 56.2°F13.4°C 71% 3.9 mph E6.3 kmh E 9.8 mph15.8 kmh 29.95 in1014.2 mb 0.00 in0.0 mm 0.00 in/hr0.0 mm/hr 0.00 in0.0 mm
04:30 AM 66.0°F18.9°C 56.0°F13.3°C 70% 3.6 mph E5.8 kmh E 8.3 mph13.4 kmh 29.95 in1014.2 mb 0.00 in0.0 mm 0.00 in/hr0.0 mm/hr 0.00 in0.0 mm
04:15 AM 66.2°F19.0°C 55.3°F12.9°C 68% 4.5 mph E7.2 kmh E 12.1 mph19.5 kmh 29.95 in1014.2 mb 0.00 in0.0 mm 0.00 in/hr0.0 mm/hr 0.00 in0.0 mm
04:00 AM 66.4°F19.1°C 55.5°F13.1°C 68% 6.0 mph E9.7 kmh E 10.7 mph17.2 kmh 29.94 in1013.9 mb 0.00 in0.0 mm 0.00 in/hr0.0 mm/hr 0.00 in0.0 mm
03:45 AM 66.6°F19.2°C 55.3°F12.9°C 67% 7.1 mph E11.4 kmh E 13.0 mph20.9 kmh 29.94 in1013.9 mb 0.00 in0.0 mm 0.00 in/hr0.0 mm/hr 0.00 in0.0 mm
03:30 AM 66.6°F19.2°C 55.3°F12.9°C 67% 6.0 mph E9.7 kmh E 14.5 mph23.3 kmh 29.94 in1013.9 mb 0.00 in0.0 mm 0.00 in/hr0.0 mm/hr 0.00 in0.0 mm
03:15 AM 66.7°F19.3°C 55.5°F13.1°C 67% 6.3 mph E10.1 kmh E 12.1 mph19.5 kmh 29.94 in1013.9 mb 0.00 in0.0 mm 0.00 in/hr0.0 mm/hr 0.00 in0.0 mm
03:00 AM 66.7°F19.3°C 55.5°F13.1°C 67% 4.8 mph E7.7 kmh E 11.4 mph18.3 kmh 29.94 in1013.9 mb 0.00 in0.0 mm 0.00 in/hr0.0 mm/hr 0.00 in0.0 mm
02:45 AM 67.1°F19.5°C 55.8°F13.2°C 67% 5.6 mph E9.0 kmh E 11.4 mph18.3 kmh 29.94 in1013.9 mb 0.00 in0.0 mm 0.00 in/hr0.0 mm/hr 0.00 in0.0 mm
02:30 AM 67.3°F19.6°C 56.0°F13.3°C 67% 5.0 mph ESE8.0 kmh ESE 11.4 mph18.3 kmh 29.93 in1013.5 mb 0.00 in0.0 mm 0.00 in/hr0.0 mm/hr 0.00 in0.0 mm
02:15 AM 67.5°F19.7°C 56.1°F13.4°C 67% 6.3 mph E10.1 kmh E 15.9 mph25.6 kmh 29.93 in1013.5 mb 0.00 in0.0 mm 0.00 in/hr0.0 mm/hr 0.00 in0.0 mm
02:00 AM 67.8°F19.9°C 56.5°F13.6°C 67% 5.3 mph E8.5 kmh E 11.4 mph18.3 kmh 29.93 in1013.5 mb 0.00 in0.0 mm 0.00 in/hr0.0 mm/hr 0.00 in0.0 mm
01:45 AM 68.2°F20.1°C 56.0°F13.3°C 65% 6.6 mph ESE10.6 kmh ESE 13.0 mph20.9 kmh 29.94 in1013.9 mb 0.00 in0.0 mm 0.00 in/hr0.0 mm/hr 0.00 in0.0 mm
01:30 AM 68.5°F20.3°C 55.9°F13.3°C 64% 6.8 mph E10.9 kmh E 15.9 mph25.6 kmh 29.93 in1013.5 mb 0.00 in0.0 mm 0.00 in/hr0.0 mm/hr 0.00 in0.0 mm
01:15 AM 69.1°F20.6°C 56.0°F13.3°C 63% 7.7 mph ESE12.4 kmh ESE 15.9 mph25.6 kmh 29.93 in1013.5 mb 0.00 in0.0 mm 0.00 in/hr0.0 mm/hr 0.00 in0.0 mm
01:00 AM 69.4°F20.8°C 55.9°F13.3°C 62% 7.2 mph ESE11.6 kmh ESE 15.2 mph24.5 kmh 29.93 in1013.5 mb 0.00 in0.0 mm 0.00 in/hr0.0 mm/hr 0.00 in0.0 mm
12:45 AM 69.8°F21.0°C 55.8°F13.2°C 61% 5.4 mph E8.7 kmh E 14.5 mph23.3 kmh 29.93 in1013.5 mb 0.00 in0.0 mm 0.00 in/hr0.0 mm/hr 0.00 in0.0 mm
12:30 AM 70.7°F21.5°C 56.2°F13.4°C 60% 7.3 mph ESE11.7 kmh ESE 17.4 mph28.0 kmh 29.93 in1013.5 mb 0.00 in0.0 mm 0.00 in/hr0.0 mm/hr 0.00 in0.0 mm
12:15 AM 71.1°F21.7°C 56.5°F13.6°C 60% 6.5 mph ESE10.5 kmh ESE 15.2 mph24.5 kmh 29.93 in1013.5 mb 0.00 in0.0 mm 0.00 in/hr0.0 mm/hr 0.00 in0.0 mm
12:00 AM 72.3°F22.4°C 55.8°F13.2°C 56% 7.7 mph ESE12.4 kmh ESE 15.9 mph25.6 kmh 29.93 in1013.5 mb 0.00 in0.0 mm 0.00 in/hr0.0 mm/hr 0.00 in0.0 mm